createdAt,value
2022-12-23T00:01:53.417Z,54.30
2022-12-23T00:04:20.812Z,84.18
2022-12-23T00:06:48.022Z,72.90
2022-12-23T00:09:15.246Z,56.70
2022-12-23T00:12:02.373Z,73.07
2022-12-23T00:14:48.155Z,66.65
2022-12-23T00:17:22.754Z,61.15
2022-12-23T00:19:53.664Z,65.30
2022-12-23T00:22:40.907Z,69.75
2022-12-23T00:25:08.387Z,71.15
2022-12-23T00:27:37.641Z,84.75
2022-12-23T00:30:08.201Z,86.75
2022-12-23T00:32:35.470Z,78.93
2022-12-23T00:35:03.026Z,81.03
2022-12-23T00:37:33.203Z,80.55
2022-12-23T00:40:18.650Z,81.72
2022-12-23T00:42:54.948Z,69.05
2022-12-23T00:45:22.171Z,75.78
2022-12-23T00:48:07.738Z,81.53
2022-12-23T00:50:37.199Z,80.00
2022-12-23T00:53:06.425Z,89.47
2022-12-23T00:55:33.550Z,69.38
2022-12-23T00:58:03.652Z,186.70
2022-12-23T01:00:49.484Z,157.35
2022-12-23T01:06:03.067Z,66.78
2022-12-23T01:08:30.515Z,70.72
2022-12-23T01:10:57.784Z,82.55
2022-12-23T01:13:24.906Z,78.18
2022-12-23T01:15:52.409Z,110.25
2022-12-23T01:18:19.585Z,104.13
2022-12-23T01:20:46.741Z,76.55
2022-12-23T01:23:15.144Z,90.28
2022-12-23T01:25:42.332Z,94.72
2022-12-23T01:28:09.575Z,109.57
2022-12-23T01:30:38.459Z,84.43
2022-12-23T01:33:05.839Z,83.82
2022-12-23T01:35:33.111Z,86.93
2022-12-23T01:38:00.382Z,113.22
2022-12-23T01:40:27.662Z,101.10
2022-12-23T01:42:54.895Z,97.68
2022-12-23T01:45:33.526Z,93.13
2022-12-23T01:48:11.417Z,121.95
2022-12-23T01:50:49.473Z,90.95
2022-12-23T01:53:35.899Z,106.18
2022-12-23T01:56:08.052Z,79.82
2022-12-23T01:58:40.546Z,97.78
2022-12-23T02:01:28.324Z,99.05
2022-12-23T02:03:59.905Z,92.72
2022-12-23T02:07:07.554Z,107.28
2022-12-23T02:09:40.428Z,107.65
2022-12-23T02:12:43.737Z,106.55
2022-12-23T02:15:45.196Z,99.70
2022-12-23T02:18:33.699Z,104.38
2022-12-23T02:21:19.292Z,96.97
2022-12-23T02:24:26.973Z,84.50
2022-12-23T02:27:14.823Z,102.63
2022-12-23T02:30:02.273Z,97.50
2022-12-23T02:33:03.172Z,167.60
2022-12-23T02:36:05.035Z,350.55
2022-12-23T02:38:41.147Z,124.25
2022-12-23T02:41:28.896Z,129.88
2022-12-23T02:44:10.457Z,266.27
2022-12-23T02:46:47.716Z,170.82
2022-12-23T02:49:26.463Z,217.25
2022-12-23T02:51:56.733Z,159.57
2022-12-23T02:54:31.938Z,130.48
2022-12-23T02:59:32.429Z,219.45
2022-12-23T03:02:01.128Z,156.55
2022-12-23T03:04:28.639Z,214.35
2022-12-23T03:06:57.761Z,277.58
2022-12-23T03:09:31.064Z,262.85
2022-12-23T03:12:35.761Z,131.55
2022-12-23T03:15:10.329Z,81.43
2022-12-23T03:18:06.909Z,76.55
2022-12-23T03:21:00.778Z,117.93
2022-12-23T03:23:33.923Z,134.88
2022-12-23T03:26:38.069Z,115.60
2022-12-23T03:29:29.024Z,101.38
2022-12-23T03:31:59.232Z,125.88
2022-12-23T03:34:30.715Z,206.95
2022-12-23T03:37:03.088Z,143.70
2022-12-23T03:39:35.352Z,130.60
2022-12-23T03:42:15.498Z,194.43
2022-12-23T03:45:10.662Z,231.82
2022-12-23T03:48:05.837Z,157.90
2022-12-23T03:50:34.204Z,212.40
2022-12-23T03:53:26.162Z,185.98
2022-12-23T03:55:59.567Z,142.32
2022-12-23T03:58:53.658Z,176.25
2022-12-23T04:01:46.197Z,118.40
2022-12-23T04:04:30.586Z,79.60
2022-12-23T04:07:09.036Z,58.10
2022-12-23T04:09:37.124Z,117.18
2022-12-23T04:12:04.724Z,89.55
2022-12-23T04:14:34.520Z,123.25
2022-12-23T04:17:01.913Z,60.88
2022-12-23T04:19:29.082Z,97.88
2022-12-23T04:21:57.272Z,164.30
2022-12-23T04:24:24.909Z,117.47
2022-12-23T04:26:52.321Z,172.65
2022-12-23T04:29:19.783Z,146.25
2022-12-23T04:31:47.065Z,80.93
2022-12-23T04:34:14.400Z,100.03
2022-12-23T04:36:41.799Z,205.23
2022-12-23T04:39:10.176Z,159.45
2022-12-23T04:41:37.415Z,67.32
2022-12-23T04:44:04.840Z,122.13
2022-12-23T04:46:32.185Z,84.57
2022-12-23T04:48:59.348Z,91.22
2022-12-23T04:51:26.560Z,95.63
2022-12-23T04:53:53.769Z,94.13
2022-12-23T04:56:20.980Z,91.93
2022-12-23T04:58:48.178Z,168.68
2022-12-23T05:01:15.576Z,259.02
2022-12-23T05:03:43.171Z,186.15
2022-12-23T05:06:10.664Z,207.48
2022-12-23T05:08:37.806Z,265.38
2022-12-23T05:11:05.265Z,174.68
2022-12-23T05:13:32.449Z,76.07
2022-12-23T05:15:59.748Z,176.20
2022-12-23T05:18:27.067Z,162.10
2022-12-23T05:20:55.265Z,159.05
2022-12-23T05:23:22.374Z,131.07
2022-12-23T05:25:54.213Z,183.65
2022-12-23T05:28:23.074Z,265.80
2022-12-23T05:30:50.344Z,282.67
2022-12-23T05:33:17.558Z,268.60
2022-12-23T05:35:44.777Z,201.73
2022-12-23T05:38:11.987Z,231.65
2022-12-23T05:40:39.139Z,224.60
2022-12-23T05:43:06.538Z,282.90
2022-12-23T05:45:36.479Z,240.45
2022-12-23T05:48:03.915Z,170.30
2022-12-23T05:50:31.127Z,138.90
2022-12-23T05:52:58.528Z,282.85
2022-12-23T05:55:26.596Z,204.07
2022-12-23T05:57:54.306Z,123.07
2022-12-23T06:00:21.930Z,178.27
2022-12-23T06:02:53.870Z,123.28
2022-12-23T06:05:22.146Z,89.13
2022-12-23T06:07:49.665Z,131.35
2022-12-23T06:10:17.320Z,78.40
2022-12-23T06:12:44.570Z,99.10
2022-12-23T06:15:12.788Z,147.68
2022-12-23T06:17:39.967Z,76.50
2022-12-23T06:20:07.967Z,85.55
2022-12-23T06:22:35.185Z,112.25
2022-12-23T06:25:02.685Z,152.23
2022-12-23T06:27:30.161Z,139.25
2022-12-23T06:29:57.589Z,97.15
2022-12-23T06:32:24.966Z,110.57
2022-12-23T06:34:53.510Z,135.32
2022-12-23T06:37:21.430Z,145.20
2022-12-23T06:39:51.374Z,162.65
2022-12-23T06:42:18.564Z,135.05
2022-12-23T06:44:45.837Z,163.55
2022-12-23T06:47:13.224Z,196.77
2022-12-23T06:49:40.373Z,263.95
2022-12-23T06:52:07.655Z,259.20
2022-12-23T06:54:34.777Z,364.65
2022-12-23T06:57:02.041Z,330.25
2022-12-23T06:59:30.133Z,294.98
2022-12-23T07:01:57.477Z,227.30
2022-12-23T07:04:24.750Z,206.02
2022-12-23T07:06:51.936Z,209.23
2022-12-23T07:09:19.126Z,225.55
2022-12-23T07:11:46.591Z,224.90
2022-12-23T07:14:13.758Z,180.02
2022-12-23T07:16:41.116Z,191.38
2022-12-23T07:19:08.531Z,346.15
2022-12-23T07:21:36.906Z,325.00
2022-12-23T07:24:04.567Z,237.40
2022-12-23T07:26:31.728Z,216.23
2022-12-23T07:28:58.808Z,269.52
2022-12-23T07:31:25.962Z,276.88
2022-12-23T07:33:55.801Z,227.07
2022-12-23T07:36:23.119Z,335.90
2022-12-23T07:38:51.864Z,269.20
2022-12-23T07:41:19.384Z,217.90
2022-12-23T07:43:46.733Z,195.15
2022-12-23T07:46:13.934Z,208.77
2022-12-23T07:48:44.504Z,225.85
2022-12-23T07:51:11.930Z,183.18
2022-12-23T07:53:39.183Z,192.38
2022-12-23T07:56:06.714Z,201.77
2022-12-23T07:58:34.067Z,207.40
2022-12-23T08:01:03.624Z,205.63
2022-12-23T08:03:31.199Z,198.98
2022-12-23T08:06:03.945Z,200.27
2022-12-23T08:08:32.363Z,247.35
2022-12-23T08:11:10.389Z,249.63
2022-12-23T08:13:39.491Z,232.02
2022-12-23T08:16:10.642Z,188.50
2022-12-23T08:18:40.073Z,205.25
2022-12-23T08:21:12.256Z,215.05
2022-12-23T08:23:39.472Z,204.88
2022-12-23T08:26:09.409Z,195.82
2022-12-23T08:28:37.836Z,172.80
2022-12-23T08:31:23.582Z,178.75
2022-12-23T08:33:53.593Z,193.20
2022-12-23T08:36:24.225Z,176.88
2022-12-23T08:38:53.734Z,177.55
2022-12-23T08:41:24.681Z,173.30
2022-12-23T08:46:17.321Z,148.70
2022-12-23T08:48:49.121Z,165.43
2022-12-23T08:51:18.847Z,158.75
2022-12-23T08:53:46.862Z,194.63
2022-12-23T08:56:17.351Z,173.52
2022-12-23T08:58:45.887Z,173.30
2022-12-23T09:01:15.868Z,185.38
2022-12-23T09:03:44.629Z,210.43
2022-12-23T09:06:21.877Z,204.43
2022-12-23T09:08:52.901Z,185.18
2022-12-23T09:11:23.806Z,209.07
2022-12-23T09:13:50.979Z,201.50
2022-12-23T09:16:18.563Z,194.70
2022-12-23T09:18:45.838Z,213.02
2022-12-23T09:21:20.467Z,188.68
2022-12-23T09:23:48.366Z,171.52
2022-12-23T09:26:27.740Z,182.95
2022-12-23T09:28:55.818Z,163.88
2022-12-23T09:31:23.789Z,164.45
2022-12-23T09:33:53.427Z,152.88
2022-12-23T09:36:22.331Z,154.70
2022-12-23T09:38:57.600Z,146.77
2022-12-23T09:44:37.359Z,151.40
2022-12-23T09:47:08.937Z,160.13
2022-12-23T09:49:51.828Z,162.02
2022-12-23T09:52:41.682Z,154.15
2022-12-23T09:55:12.350Z,152.52
2022-12-23T09:57:52.815Z,154.98
2022-12-23T10:00:22.003Z,142.70
2022-12-23T10:03:08.909Z,153.20
2022-12-23T10:05:56.549Z,166.55
2022-12-23T10:09:00.227Z,136.38
2022-12-23T10:11:32.175Z,170.88
2022-12-23T10:14:16.680Z,165.27
2022-12-23T10:16:49.659Z,165.77
2022-12-23T10:19:42.268Z,206.52
2022-12-23T10:22:37.609Z,173.63
2022-12-23T10:25:17.713Z,179.55
2022-12-23T10:27:45.738Z,160.13
2022-12-23T10:33:45.348Z,168.77
2022-12-23T10:36:30.208Z,158.20
2022-12-23T10:39:09.459Z,165.77
2022-12-23T10:42:12.840Z,153.57
2022-12-23T10:45:13.310Z,192.10
2022-12-23T10:48:06.088Z,178.63
2022-12-23T10:50:58.067Z,165.57
2022-12-23T10:53:41.414Z,172.32
2022-12-23T10:56:09.303Z,175.07
2022-12-23T10:58:41.956Z,182.25
2022-12-23T11:01:16.071Z,148.90
2022-12-23T11:04:13.498Z,167.25
2022-12-23T11:07:10.721Z,156.50
2022-12-23T11:09:42.086Z,138.30
2022-12-23T11:12:11.969Z,144.68
2022-12-23T11:14:42.461Z,142.23
2022-12-23T11:17:35.507Z,140.82
2022-12-23T11:20:14.229Z,157.55
2022-12-23T11:23:02.634Z,157.15
2022-12-23T11:25:37.458Z,184.20
2022-12-23T11:28:10.350Z,183.43
2022-12-23T11:31:12.148Z,143.20
2022-12-23T11:33:55.456Z,148.05
2022-12-23T11:36:27.948Z,168.48
2022-12-23T11:39:23.278Z,151.40
2022-12-23T11:41:53.521Z,144.60
2022-12-23T11:44:31.246Z,179.73
2022-12-23T11:47:17.435Z,136.15
2022-12-23T11:49:49.802Z,151.18
2022-12-23T11:52:20.721Z,146.23
2022-12-23T11:55:00.476Z,180.27
2022-12-23T11:57:48.922Z,169.35
2022-12-23T12:00:22.705Z,165.57
2022-12-23T12:02:54.049Z,173.50
2022-12-23T12:05:36.962Z,187.98
2022-12-23T12:08:16.339Z,187.55
2022-12-23T12:10:43.721Z,167.35
2022-12-23T12:13:26.401Z,184.13
2022-12-23T12:16:16.562Z,188.80
2022-12-23T12:18:52.022Z,150.23
2022-12-23T12:21:29.556Z,165.93
2022-12-23T12:24:19.619Z,157.57
2022-12-23T12:26:51.562Z,172.90
2022-12-23T12:29:31.857Z,160.43
2022-12-23T12:32:00.817Z,175.68
2022-12-23T12:34:56.773Z,173.32
2022-12-23T12:37:49.870Z,164.95
2022-12-23T12:40:36.803Z,146.90
2022-12-23T12:43:07.018Z,153.88
2022-12-23T12:45:41.696Z,145.57
2022-12-23T12:48:30.665Z,159.05
2022-12-23T12:51:17.256Z,142.57
2022-12-23T12:54:05.662Z,137.93
2022-12-23T12:56:44.464Z,138.70
2022-12-23T12:59:27.436Z,152.55
2022-12-23T13:02:43.755Z,124.97
2022-12-23T13:05:29.166Z,127.72
2022-12-23T13:08:38.740Z,120.22
2022-12-23T13:11:26.575Z,112.28
2022-12-23T13:13:58.460Z,130.30
2022-12-23T13:16:37.485Z,132.13
2022-12-23T13:19:23.018Z,129.50
2022-12-23T13:21:59.178Z,117.50
2022-12-23T13:24:37.282Z,121.10
2022-12-23T13:27:22.505Z,108.82
2022-12-23T13:30:15.206Z,120.68
2022-12-23T13:33:08.184Z,143.60
2022-12-23T13:35:35.394Z,122.80
2022-12-23T13:38:45.266Z,121.07
2022-12-23T13:41:34.191Z,102.72
2022-12-23T13:44:05.909Z,124.85
2022-12-23T13:46:41.732Z,106.85
2022-12-23T13:49:21.368Z,86.25
2022-12-23T13:52:36.823Z,106.72
2022-12-23T13:55:26.372Z,94.80
2022-12-23T13:58:02.551Z,107.65
2022-12-23T14:00:32.421Z,95.97
2022-12-23T14:03:02.317Z,106.40
2022-12-23T14:05:50.615Z,119.40
2022-12-23T14:08:20.586Z,109.95
2022-12-23T14:11:12.097Z,116.88
2022-12-23T14:13:55.431Z,116.57
2022-12-23T14:16:28.492Z,95.40
2022-12-23T14:19:07.066Z,113.65
2022-12-23T14:21:56.417Z,98.32
2022-12-23T14:24:36.702Z,114.97
2022-12-23T14:27:29.137Z,125.63
2022-12-23T14:30:11.789Z,127.32
2022-12-23T14:32:53.635Z,117.45
2022-12-23T14:35:28.379Z,111.35
2022-12-23T14:38:16.682Z,124.13
2022-12-23T14:40:44.022Z,91.80
2022-12-23T14:43:23.534Z,122.65
2022-12-23T14:45:56.418Z,132.57
2022-12-23T14:48:42.226Z,107.93
2022-12-23T14:51:09.341Z,93.93
2022-12-23T14:53:57.399Z,83.22
2022-12-23T14:56:39.943Z,100.65
2022-12-23T14:59:21.602Z,100.18
2022-12-23T15:02:09.923Z,99.60
2022-12-23T15:04:59.553Z,84.43
2022-12-23T15:07:32.838Z,112.88
2022-12-23T15:10:09.808Z,135.60
2022-12-23T15:12:40.165Z,123.57
2022-12-23T15:15:22.658Z,95.45
2022-12-23T15:18:01.450Z,91.00
2022-12-23T15:20:28.932Z,134.23
2022-12-23T15:23:04.671Z,107.53
2022-12-23T15:25:38.862Z,89.13
2022-12-23T15:28:06.433Z,88.30
2022-12-23T15:30:37.886Z,159.60
2022-12-23T15:33:35.133Z,118.50
2022-12-23T15:35:57.516Z,112.38
2022-12-23T15:38:30.140Z,86.95
2022-12-23T15:41:03.321Z,65.07
2022-12-23T15:43:31.200Z,81.78
2022-12-23T15:46:23.626Z,82.13
2022-12-23T15:48:56.586Z,80.40
2022-12-23T15:52:07.140Z,91.75
2022-12-23T15:54:44.312Z,76.25
2022-12-23T15:57:20.614Z,92.25
2022-12-23T15:59:48.059Z,89.93
2022-12-23T16:05:36.370Z,89.07
2022-12-23T16:08:14.070Z,79.75
2022-12-23T16:10:42.526Z,83.18
2022-12-23T16:13:28.372Z,94.72
2022-12-23T16:15:55.589Z,88.35
2022-12-23T16:18:25.842Z,91.93
2022-12-23T16:21:01.822Z,82.57
2022-12-23T16:23:32.369Z,80.55
2022-12-23T16:26:02.302Z,86.10
2022-12-23T16:28:41.333Z,83.68
2022-12-23T16:31:10.963Z,83.15
2022-12-23T16:34:07.117Z,72.07
2022-12-23T16:39:22.351Z,68.25
2022-12-23T16:41:50.459Z,91.65
2022-12-23T16:44:20.588Z,81.68
2022-12-23T16:46:51.117Z,85.43
2022-12-23T16:49:21.219Z,86.20
2022-12-23T16:51:48.839Z,75.80
2022-12-23T16:54:19.167Z,78.68
2022-12-23T16:56:47.076Z,81.63
2022-12-23T16:59:15.029Z,85.43
2022-12-23T17:01:49.493Z,93.32
2022-12-23T17:04:16.710Z,79.38
2022-12-23T17:06:46.677Z,77.43
2022-12-23T17:09:14.276Z,89.85
2022-12-23T17:11:50.379Z,84.20
2022-12-23T17:14:23.370Z,100.13
2022-12-23T17:16:51.121Z,92.18
2022-12-23T17:19:27.177Z,78.18
2022-12-23T17:22:01.228Z,84.30
2022-12-23T17:24:29.078Z,103.78
2022-12-23T17:26:57.150Z,91.35
2022-12-23T17:29:24.504Z,80.53
2022-12-23T17:31:52.308Z,74.88
2022-12-23T17:34:22.424Z,80.05
2022-12-23T17:36:51.225Z,79.32
2022-12-23T17:39:19.531Z,91.43
2022-12-23T17:41:47.153Z,82.60
2022-12-23T17:44:16.219Z,77.35
2022-12-23T17:46:43.557Z,79.30
2022-12-23T17:49:10.710Z,81.05
2022-12-23T17:51:40.523Z,91.60
2022-12-23T17:54:14.333Z,77.60
2022-12-23T17:56:41.786Z,95.75
2022-12-23T17:59:09.215Z,82.15
2022-12-23T18:01:37.955Z,93.63
2022-12-23T18:04:05.356Z,70.53
2022-12-23T18:06:32.597Z,65.28
2022-12-23T18:08:59.809Z,83.18
2022-12-23T18:11:42.137Z,73.38
2022-12-23T18:14:32.047Z,58.28
2022-12-23T18:16:59.968Z,67.00
2022-12-23T18:19:30.927Z,66.22
2022-12-23T18:21:58.543Z,61.42
2022-12-23T18:24:25.812Z,59.53
2022-12-23T18:26:53.202Z,63.17
2022-12-23T18:29:20.398Z,64.82
2022-12-23T18:31:52.148Z,69.47
2022-12-23T18:34:20.571Z,65.65
2022-12-23T18:36:48.589Z,77.30
2022-12-23T18:39:15.992Z,72.07
2022-12-23T18:41:43.126Z,77.30
2022-12-23T18:44:21.015Z,77.82
2022-12-23T18:46:49.569Z,202.13
2022-12-23T18:49:17.039Z,89.32
2022-12-23T18:51:44.438Z,66.72
2022-12-23T18:54:15.132Z,62.42
2022-12-23T18:56:42.678Z,62.72
2022-12-23T18:59:18.570Z,73.22
2022-12-23T19:01:47.638Z,69.80
2022-12-23T19:04:15.288Z,78.38
2022-12-23T19:06:42.588Z,76.15
2022-12-23T19:09:16.640Z,75.90
2022-12-23T19:11:44.137Z,72.68
2022-12-23T19:14:12.619Z,79.38
2022-12-23T19:16:43.652Z,75.38
2022-12-23T19:19:15.014Z,72.53
2022-12-23T19:21:42.209Z,72.47
2022-12-23T19:24:09.502Z,87.85
2022-12-23T19:26:36.712Z,85.70
2022-12-23T19:29:04.159Z,83.03
2022-12-23T19:31:34.099Z,92.80
2022-12-23T19:34:01.894Z,94.90
2022-12-23T19:36:29.703Z,87.38
2022-12-23T19:38:57.983Z,99.43
2022-12-23T19:41:25.865Z,111.22
2022-12-23T19:43:53.349Z,118.47
2022-12-23T19:46:20.656Z,112.43
2022-12-23T19:48:52.609Z,105.88
2022-12-23T19:51:20.064Z,114.15
2022-12-23T19:53:50.941Z,107.90
2022-12-23T19:56:21.401Z,112.90
2022-12-23T19:58:49.670Z,127.25
2022-12-23T20:01:21.309Z,129.88
2022-12-23T20:03:49.836Z,124.65
2022-12-23T20:06:28.768Z,124.45
2022-12-23T20:09:00.816Z,124.88
2022-12-23T20:11:30.974Z,120.13
2022-12-23T20:14:08.152Z,124.43
2022-12-23T20:16:36.122Z,114.28
2022-12-23T20:19:04.989Z,132.23
2022-12-23T20:21:32.716Z,128.48
2022-12-23T20:24:00.085Z,115.88
2022-12-23T20:26:29.293Z,115.38
2022-12-23T20:28:57.556Z,101.70
2022-12-23T20:31:27.598Z,112.28
2022-12-23T20:33:55.886Z,109.15
2022-12-23T20:36:28.766Z,102.97
2022-12-23T20:38:57.314Z,124.78
2022-12-23T20:41:27.424Z,109.82
2022-12-23T20:44:32.372Z,133.77
2022-12-23T20:46:42.252Z,97.15
2022-12-23T20:49:09.412Z,106.13
2022-12-23T20:51:36.640Z,102.72
2022-12-23T20:54:04.006Z,100.95
2022-12-23T20:56:33.024Z,106.38
2022-12-23T20:59:01.710Z,108.97
2022-12-23T21:01:36.331Z,99.50
2022-12-23T21:04:06.720Z,109.22
2022-12-23T21:06:39.668Z,111.32
2022-12-23T21:09:09.268Z,113.13
2022-12-23T21:11:38.387Z,90.00
2022-12-23T21:14:07.315Z,100.97
2022-12-23T21:16:36.753Z,112.32
2022-12-23T21:19:05.776Z,103.65
2022-12-23T21:21:33.031Z,96.10
2022-12-23T21:24:05.082Z,110.38
2022-12-23T21:26:34.379Z,79.45
2022-12-23T21:29:04.158Z,93.88
2022-12-23T21:31:33.046Z,87.03
2022-12-23T21:34:00.816Z,81.82
2022-12-23T21:36:34.921Z,97.70
2022-12-23T21:39:02.561Z,102.93
2022-12-23T21:41:36.389Z,96.32
2022-12-23T21:44:03.672Z,87.63
2022-12-23T21:46:31.000Z,101.13
2022-12-23T21:48:59.245Z,81.28
2022-12-23T21:51:38.857Z,98.97
2022-12-23T21:54:06.525Z,104.32
2022-12-23T21:56:33.854Z,86.05
2022-12-23T21:59:03.713Z,100.95
2022-12-23T22:01:32.008Z,100.57
2022-12-23T22:03:59.583Z,75.65
2022-12-23T22:06:32.762Z,79.55
2022-12-23T22:09:02.564Z,86.45
2022-12-23T22:11:31.882Z,75.38
2022-12-23T22:14:00.234Z,79.38
2022-12-23T22:16:29.006Z,92.40
2022-12-23T22:18:57.663Z,81.95
2022-12-23T22:21:27.437Z,76.72
2022-12-23T22:23:55.500Z,75.43
2022-12-23T22:26:28.439Z,101.85
2022-12-23T22:28:57.446Z,93.13
2022-12-23T22:31:30.448Z,89.38
2022-12-23T22:33:58.025Z,92.35
2022-12-23T22:36:25.552Z,90.82
2022-12-23T22:38:55.053Z,89.70
2022-12-23T22:41:23.358Z,86.93
2022-12-23T22:43:50.644Z,109.18
2022-12-23T22:46:18.855Z,103.03
2022-12-23T22:48:46.713Z,121.32
2022-12-23T22:51:16.785Z,109.57
2022-12-23T22:53:43.941Z,105.47
2022-12-23T22:56:13.832Z,104.63
2022-12-23T22:58:41.394Z,110.97
2022-12-23T23:01:20.840Z,132.02
2022-12-23T23:03:50.960Z,109.78
2022-12-23T23:06:18.973Z,121.60
2022-12-23T23:08:46.246Z,110.93
2022-12-23T23:11:13.495Z,111.28
2022-12-23T23:13:40.691Z,115.38
2022-12-23T23:16:08.109Z,120.80
2022-12-23T23:18:35.568Z,101.63
2022-12-23T23:21:02.925Z,102.32
2022-12-23T23:23:29.962Z,106.72
2022-12-23T23:25:57.103Z,112.10
2022-12-23T23:28:24.627Z,96.53
2022-12-23T23:31:03.828Z,115.10
2022-12-23T23:33:37.052Z,120.28
2022-12-23T23:36:05.428Z,104.60
2022-12-23T23:38:33.227Z,109.30
2022-12-23T23:41:00.332Z,122.30
2022-12-23T23:43:27.492Z,123.72
2022-12-23T23:45:55.410Z,115.15
2022-12-23T23:48:22.916Z,117.10
2022-12-23T23:50:50.175Z,112.85
2022-12-23T23:53:17.637Z,121.53
2022-12-23T23:55:44.781Z,116.72
2022-12-23T23:58:12.999Z,122.97
